createdAt,value
2022-11-01T00:01:32.607Z,21.87
2022-11-01T00:04:35.818Z,21.24
2022-11-01T00:07:39.065Z,21.17
2022-11-01T00:10:42.207Z,21.35
2022-11-01T00:13:52.017Z,21.30
2022-11-01T00:16:55.154Z,21.22
2022-11-01T00:19:58.258Z,20.76
2022-11-01T00:23:01.929Z,20.87
2022-11-01T00:26:06.196Z,20.80
2022-11-01T00:29:09.386Z,20.51
2022-11-01T00:32:12.474Z,20.53
2022-11-01T00:35:15.671Z,20.29
2022-11-01T00:38:19.179Z,20.19
2022-11-01T00:41:22.318Z,20.35
2022-11-01T00:44:25.410Z,20.64
2022-11-01T00:47:28.534Z,20.47
2022-11-01T00:50:33.782Z,20.40
2022-11-01T00:53:37.121Z,20.24
2022-11-01T00:56:40.272Z,19.97
2022-11-01T00:59:43.641Z,19.97
2022-11-01T01:02:46.816Z,19.98
2022-11-01T01:05:51.036Z,20.33
2022-11-01T01:08:56.146Z,20.40
2022-11-01T01:11:59.283Z,20.32
2022-11-01T01:15:02.747Z,20.13
2022-11-01T01:18:06.423Z,20.12
2022-11-01T01:21:09.617Z,20.10
2022-11-01T01:24:12.788Z,20.07
2022-11-01T01:27:16.677Z,20.07
2022-11-01T01:30:19.864Z,19.95
2022-11-01T01:33:23.231Z,19.68
2022-11-01T01:36:26.407Z,19.51
2022-11-01T01:39:29.531Z,19.44
2022-11-01T01:42:35.389Z,19.49
2022-11-01T01:45:41.141Z,19.36
2022-11-01T01:48:47.319Z,19.24
2022-11-01T01:51:50.713Z,19.18
2022-11-01T01:54:53.884Z,19.29
2022-11-01T01:57:58.344Z,18.74
2022-11-01T02:01:01.760Z,18.64
2022-11-01T02:04:07.067Z,18.43
2022-11-01T02:07:10.406Z,18.82
2022-11-01T02:10:14.327Z,18.92
2022-11-01T02:13:17.699Z,19.06
2022-11-01T02:16:38.727Z,18.95
2022-11-01T02:20:26.731Z,19.15
2022-11-01T02:24:16.489Z,18.94
2022-11-01T02:27:27.636Z,18.60
2022-11-01T02:30:46.595Z,18.47
2022-11-01T02:34:20.801Z,18.68
2022-11-01T02:37:27.963Z,18.77
2022-11-01T02:40:48.775Z,18.57
2022-11-01T02:44:25.792Z,18.35
2022-11-01T02:47:30.733Z,18.42
2022-11-01T02:50:45.024Z,18.52
2022-11-01T02:53:48.120Z,18.69
2022-11-01T02:56:52.052Z,18.38
2022-11-01T02:59:55.220Z,18.50
2022-11-01T03:03:14.959Z,18.28
2022-11-01T03:06:45.947Z,18.23
2022-11-01T03:09:49.005Z,18.20
2022-11-01T03:13:23.472Z,18.15
2022-11-01T03:16:41.710Z,18.10
2022-11-01T03:19:49.406Z,18.10
2022-11-01T03:22:57.681Z,17.87
2022-11-01T03:26:02.704Z,17.99
2022-11-01T03:29:08.417Z,18.04
2022-11-01T03:32:11.735Z,17.97
2022-11-01T03:35:37.108Z,17.85
2022-11-01T03:38:43.698Z,17.94
2022-11-01T03:41:50.363Z,17.89
2022-11-01T03:45:07.257Z,17.97
2022-11-01T03:48:10.534Z,17.71
2022-11-01T03:51:13.896Z,17.92
2022-11-01T03:54:19.478Z,17.83
2022-11-01T03:57:25.205Z,17.71
2022-11-01T04:00:29.399Z,17.55
2022-11-01T04:03:32.471Z,17.64
2022-11-01T04:06:35.585Z,17.54
2022-11-01T04:09:38.703Z,17.79
2022-11-01T04:12:44.646Z,17.88
2022-11-01T04:15:47.845Z,17.41
2022-11-01T04:18:50.924Z,17.39
2022-11-01T04:21:56.191Z,17.33
2022-11-01T04:24:59.273Z,17.51
2022-11-01T04:28:02.394Z,17.63
2022-11-01T04:31:06.393Z,17.84
2022-11-01T04:34:09.678Z,17.90
2022-11-01T04:37:13.379Z,17.73
2022-11-01T04:40:16.758Z,17.50
2022-11-01T04:43:20.086Z,17.63
2022-11-01T04:46:23.688Z,17.65
2022-11-01T04:49:26.755Z,17.63
2022-11-01T04:52:32.407Z,17.53
2022-11-01T04:55:35.495Z,17.68
2022-11-01T04:58:43.063Z,17.59
2022-11-01T05:01:49.710Z,17.47
2022-11-01T05:04:52.868Z,17.15
2022-11-01T05:08:09.424Z,17.05
2022-11-01T05:11:12.560Z,17.28
2022-11-01T05:14:15.612Z,17.39
2022-11-01T05:17:18.830Z,17.17
2022-11-01T05:20:21.881Z,17.16
2022-11-01T05:23:24.973Z,17.32
2022-11-01T05:26:28.009Z,17.28
2022-11-01T05:29:33.129Z,17.01
2022-11-01T05:32:36.609Z,16.61
2022-11-01T05:35:39.828Z,16.28
2022-11-01T05:38:45.666Z,16.66
2022-11-01T05:41:48.784Z,16.87
2022-11-01T05:44:51.811Z,16.74
2022-11-01T05:47:54.977Z,16.66
2022-11-01T05:50:58.096Z,16.67
2022-11-01T05:54:03.470Z,16.50
2022-11-01T05:57:06.974Z,16.66
2022-11-01T06:00:11.254Z,16.80
2022-11-01T06:03:14.377Z,16.77
2022-11-01T06:06:19.940Z,16.69
2022-11-01T06:09:23.031Z,16.75
2022-11-01T06:12:26.148Z,16.78
2022-11-01T06:15:29.412Z,16.80
2022-11-01T06:18:32.566Z,16.55
2022-11-01T06:21:35.688Z,16.15
2022-11-01T06:24:38.915Z,15.82
2022-11-01T06:27:43.555Z,15.98
2022-11-01T06:30:46.806Z,16.00
2022-11-01T06:33:50.659Z,16.17
2022-11-01T06:36:53.868Z,16.32
2022-11-01T06:39:56.953Z,16.34
2022-11-01T06:43:05.276Z,16.22
2022-11-01T06:46:08.592Z,16.25
2022-11-01T06:49:16.315Z,16.14
2022-11-01T06:52:22.034Z,16.10
2022-11-01T06:55:26.188Z,16.02
2022-11-01T06:58:29.287Z,16.14
2022-11-01T07:01:34.047Z,16.10
2022-11-01T07:04:37.291Z,16.03
2022-11-01T07:07:40.547Z,16.03
2022-11-01T07:10:44.250Z,16.07
2022-11-01T07:13:47.385Z,16.04
2022-11-01T07:16:51.032Z,16.20
2022-11-01T07:19:54.193Z,16.04
2022-11-01T07:23:05.980Z,16.10
2022-11-01T07:26:09.340Z,15.82
2022-11-01T07:29:12.934Z,15.23
2022-11-01T07:32:16.077Z,14.98
2022-11-01T07:35:19.136Z,15.22
2022-11-01T07:38:22.231Z,15.58
2022-11-01T07:41:25.337Z,15.45
2022-11-01T07:44:28.637Z,15.65
2022-11-01T07:47:32.137Z,15.78
2022-11-01T07:50:35.432Z,15.89
2022-11-01T07:53:38.529Z,16.08
2022-11-01T07:56:41.597Z,15.84
2022-11-01T07:59:44.713Z,15.82
2022-11-01T08:02:47.844Z,15.54
2022-11-01T08:05:50.934Z,15.18
2022-11-01T08:08:53.991Z,15.02
2022-11-01T08:11:57.148Z,15.18
2022-11-01T08:15:00.266Z,15.25
2022-11-01T08:18:03.663Z,15.48
2022-11-01T08:21:07.009Z,15.33
2022-11-01T08:24:10.181Z,15.22
2022-11-01T08:27:13.282Z,15.39
2022-11-01T08:30:19.400Z,15.18
2022-11-01T08:33:22.563Z,15.30
2022-11-01T08:36:25.635Z,15.47
2022-11-01T08:39:28.698Z,15.38
2022-11-01T08:42:31.803Z,15.18
2022-11-01T08:45:35.121Z,15.28
2022-11-01T08:48:38.323Z,15.18
2022-11-01T08:51:41.559Z,14.88
2022-11-01T08:54:44.711Z,14.61
2022-11-01T08:57:47.816Z,14.84
2022-11-01T09:00:50.988Z,14.98
2022-11-01T09:03:58.087Z,14.90
2022-11-01T09:07:01.152Z,14.72
2022-11-01T09:10:05.351Z,15.20
2022-11-01T09:13:08.498Z,15.40
2022-11-01T09:16:11.860Z,15.05
2022-11-01T09:19:14.934Z,15.34
2022-11-01T09:22:18.250Z,15.33
2022-11-01T09:25:21.595Z,15.41
2022-11-01T09:28:24.674Z,14.99
2022-11-01T09:31:27.790Z,14.74
2022-11-01T09:34:30.961Z,14.93
2022-11-01T09:37:34.010Z,14.78
2022-11-01T09:40:39.792Z,14.61
2022-11-01T09:43:44.141Z,14.52
2022-11-01T09:46:54.339Z,14.73
2022-11-01T09:50:07.554Z,14.54
2022-11-01T09:53:21.087Z,14.95
2022-11-01T09:56:30.486Z,15.16
2022-11-01T09:59:36.480Z,15.27
2022-11-01T10:03:06.790Z,14.85
2022-11-01T10:06:31.073Z,15.16
2022-11-01T10:09:55.192Z,15.25
2022-11-01T10:13:24.064Z,15.25
2022-11-01T10:16:41.258Z,15.09
2022-11-01T10:19:53.303Z,14.99
2022-11-01T10:22:56.825Z,14.97
2022-11-01T10:25:59.889Z,15.00
2022-11-01T10:29:19.233Z,14.91
2022-11-01T10:32:38.247Z,14.49
2022-11-01T10:35:46.478Z,14.44
2022-11-01T10:42:17.765Z,14.58
2022-11-01T10:45:21.172Z,15.13
2022-11-01T10:48:54.183Z,15.61
2022-11-01T10:52:01.361Z,15.50
2022-11-01T10:55:09.307Z,15.60
2022-11-01T10:58:52.155Z,15.59
2022-11-01T11:01:55.666Z,15.32
2022-11-01T11:04:59.013Z,15.34
2022-11-01T11:08:02.341Z,14.98
2022-11-01T11:11:10.344Z,14.93
2022-11-01T11:14:15.946Z,15.04
2022-11-01T11:17:22.517Z,15.25
2022-11-01T11:20:27.246Z,15.59
2022-11-01T11:23:32.374Z,15.64
2022-11-01T11:26:39.407Z,15.29
2022-11-01T11:30:12.560Z,15.73
2022-11-01T11:33:20.693Z,16.01
2022-11-01T11:36:41.693Z,15.59
2022-11-01T11:40:22.958Z,15.70
2022-11-01T11:43:32.622Z,15.48
2022-11-01T11:46:37.694Z,15.51
2022-11-01T11:49:40.837Z,15.65
2022-11-01T11:52:43.952Z,15.65
2022-11-01T11:55:59.134Z,15.63
2022-11-01T11:59:10.017Z,15.43
2022-11-01T12:02:24.020Z,15.74
2022-11-01T12:05:27.188Z,15.75
2022-11-01T12:08:46.369Z,15.75
2022-11-01T12:11:49.455Z,15.98
2022-11-01T12:14:55.143Z,16.08
2022-11-01T12:18:14.584Z,16.26
2022-11-01T12:21:33.918Z,16.05
2022-11-01T12:24:57.215Z,15.38
2022-11-01T12:28:07.223Z,15.48
2022-11-01T12:31:19.095Z,15.68
2022-11-01T12:34:25.708Z,16.07
2022-11-01T12:37:52.940Z,16.17
2022-11-01T12:40:56.176Z,16.13
2022-11-01T12:44:02.393Z,16.04
2022-11-01T12:47:10.216Z,15.90
2022-11-01T12:50:49.827Z,16.07
2022-11-01T12:54:02.764Z,16.20
2022-11-01T12:57:13.799Z,16.11
2022-11-01T13:00:21.002Z,16.02
2022-11-01T13:03:45.245Z,16.35
2022-11-01T13:07:06.345Z,16.14
2022-11-01T13:10:34.216Z,16.19
2022-11-01T13:13:43.329Z,15.98
2022-11-01T13:16:50.708Z,16.43
2022-11-01T13:20:05.666Z,17.03
2022-11-01T13:23:17.792Z,17.31
2022-11-01T13:26:38.069Z,16.51
2022-11-01T13:30:01.950Z,16.43
2022-11-01T13:33:16.140Z,16.15
2022-11-01T13:36:21.585Z,16.55
2022-11-01T13:39:31.324Z,16.91
2022-11-01T13:42:57.844Z,17.39
2022-11-01T13:46:30.428Z,17.51
2022-11-01T13:49:46.987Z,17.64
2022-11-01T13:52:54.745Z,17.42
2022-11-01T13:56:37.564Z,17.09
2022-11-01T13:59:40.648Z,16.86
2022-11-01T14:02:58.485Z,16.42
2022-11-01T14:06:25.222Z,16.61
2022-11-01T14:09:28.232Z,16.60
2022-11-01T14:12:34.388Z,16.35
2022-11-01T14:15:55.643Z,16.77
2022-11-01T14:19:05.039Z,16.88
2022-11-01T14:22:28.868Z,17.52
2022-11-01T14:25:33.128Z,17.62
2022-11-01T14:28:43.578Z,17.92
2022-11-01T14:31:47.704Z,18.20
2022-11-01T14:35:07.472Z,18.62
2022-11-01T14:38:16.953Z,18.35
2022-11-01T14:41:21.116Z,18.47
2022-11-01T14:44:33.107Z,18.87
2022-11-01T14:47:39.714Z,18.71
2022-11-01T14:50:58.527Z,18.82
2022-11-01T14:54:13.814Z,19.10
2022-11-01T14:57:28.501Z,19.41
2022-11-01T15:00:33.121Z,19.33
2022-11-01T15:03:36.220Z,18.71
2022-11-01T15:06:42.921Z,18.79
2022-11-01T15:10:07.490Z,18.95
2022-11-01T15:13:15.334Z,18.98
2022-11-01T15:16:25.356Z,19.26
2022-11-01T15:19:34.897Z,19.55
2022-11-01T15:22:38.096Z,19.61
2022-11-01T15:25:41.266Z,19.88
2022-11-01T15:28:50.764Z,20.19
2022-11-01T15:31:58.348Z,19.96
2022-11-01T15:35:16.973Z,20.22
2022-11-01T15:38:21.073Z,20.28
2022-11-01T15:41:27.473Z,20.06
2022-11-01T15:44:30.987Z,20.12
2022-11-01T15:47:35.986Z,20.45
2022-11-01T15:50:41.537Z,20.64
2022-11-01T15:53:44.730Z,20.51
2022-11-01T15:56:52.954Z,20.77
2022-11-01T15:59:58.104Z,20.94
2022-11-01T16:03:12.567Z,21.01
2022-11-01T16:06:24.778Z,21.03
2022-11-01T16:09:37.596Z,21.30
2022-11-01T16:12:45.703Z,21.58
2022-11-01T16:16:08.235Z,21.54
2022-11-01T16:19:27.889Z,21.71
2022-11-01T16:22:40.658Z,21.75
2022-11-01T16:25:46.054Z,21.54
2022-11-01T16:28:49.138Z,21.41
2022-11-01T16:32:10.040Z,21.05
2022-11-01T16:35:34.004Z,21.08
2022-11-01T16:38:40.579Z,21.51
2022-11-01T16:41:43.632Z,21.33
2022-11-01T16:44:56.474Z,21.77
2022-11-01T16:47:59.604Z,21.69
2022-11-01T16:51:04.625Z,21.33
2022-11-01T16:54:09.944Z,21.19
2022-11-01T16:57:25.907Z,20.98
2022-11-01T17:00:31.122Z,21.41
2022-11-01T17:03:34.259Z,21.63
2022-11-01T17:06:39.032Z,21.63
2022-11-01T17:09:42.838Z,21.86
2022-11-01T17:12:46.083Z,22.09
2022-11-01T17:15:51.317Z,22.14
2022-11-01T17:18:57.941Z,22.03
2022-11-01T17:22:06.793Z,22.12
2022-11-01T17:25:15.896Z,22.13
2022-11-01T17:28:20.298Z,22.39
2022-11-01T17:31:23.497Z,22.40
2022-11-01T17:34:26.747Z,21.90
2022-11-01T17:37:31.897Z,22.38
2022-11-01T17:40:37.533Z,22.42
2022-11-01T17:43:40.648Z,22.79
2022-11-01T17:46:45.009Z,22.12
2022-11-01T17:49:48.079Z,22.52
2022-11-01T17:52:51.218Z,22.76
2022-11-01T17:56:00.104Z,22.74
2022-11-01T17:59:03.235Z,22.51
2022-11-01T18:02:06.485Z,22.31
2022-11-01T18:05:09.978Z,22.38
2022-11-01T18:08:21.102Z,22.34
2022-11-01T18:11:39.296Z,22.67
2022-11-01T18:15:18.040Z,22.66
2022-11-01T18:18:46.142Z,22.35
2022-11-01T18:21:58.197Z,22.00
2022-11-01T18:25:06.303Z,22.19
2022-11-01T18:28:14.448Z,22.52
2022-11-01T18:31:41.811Z,22.39
2022-11-01T18:35:00.263Z,22.43
2022-11-01T18:38:15.475Z,22.62
2022-11-01T18:41:21.141Z,22.51
2022-11-01T18:44:25.272Z,22.34
2022-11-01T18:47:35.921Z,22.14
2022-11-01T18:50:39.052Z,22.51
2022-11-01T18:53:43.455Z,22.26
2022-11-01T18:57:15.820Z,22.35
2022-11-01T19:00:18.940Z,22.26
2022-11-01T19:03:24.264Z,22.33
2022-11-01T19:06:27.782Z,22.57
2022-11-01T19:09:31.310Z,22.20
2022-11-01T19:12:40.746Z,22.42
2022-11-01T19:15:44.090Z,22.26
2022-11-01T19:18:48.883Z,21.71
2022-11-01T19:21:52.292Z,21.58
2022-11-01T19:24:55.367Z,21.46
2022-11-01T19:28:03.406Z,21.78
2022-11-01T19:31:24.521Z,21.95
2022-11-01T19:34:34.639Z,21.99
2022-11-01T19:37:39.534Z,22.00
2022-11-01T19:40:42.975Z,22.06
2022-11-01T19:43:46.049Z,21.31
2022-11-01T19:46:49.656Z,21.35
2022-11-01T19:49:52.987Z,21.67
2022-11-01T19:52:59.534Z,21.79
2022-11-01T19:56:10.081Z,21.81
2022-11-01T19:59:14.803Z,21.83
2022-11-01T20:02:21.943Z,21.84
2022-11-01T20:05:34.365Z,21.79
2022-11-01T20:08:39.397Z,21.71
2022-11-01T20:11:42.447Z,21.94
2022-11-01T20:14:45.603Z,21.89
2022-11-01T20:17:48.706Z,21.83
2022-11-01T20:20:53.800Z,21.67
2022-11-01T20:23:56.989Z,21.70
2022-11-01T20:27:00.263Z,21.87
2022-11-01T20:30:06.610Z,21.93
2022-11-01T20:33:09.668Z,21.96
2022-11-01T20:36:12.983Z,21.88
2022-11-01T20:39:16.820Z,21.73
2022-11-01T20:42:25.200Z,21.75
2022-11-01T20:45:28.371Z,21.73
2022-11-01T20:48:33.382Z,21.75
2022-11-01T20:51:36.576Z,21.76
2022-11-01T20:54:39.773Z,21.74
2022-11-01T20:57:42.814Z,21.57
2022-11-01T21:00:45.965Z,21.41
2022-11-01T21:03:49.147Z,21.19
2022-11-01T21:06:52.527Z,21.25
2022-11-01T21:09:55.693Z,21.12
2022-11-01T21:13:00.477Z,20.91
2022-11-01T21:16:07.179Z,20.86
2022-11-01T21:19:26.347Z,21.27
2022-11-01T21:22:30.008Z,21.33
2022-11-01T21:25:33.250Z,21.52
2022-11-01T21:28:43.369Z,21.26
2022-11-01T21:31:46.600Z,21.09
2022-11-01T21:34:51.743Z,21.39
2022-11-01T21:37:55.711Z,21.33
2022-11-01T21:40:58.990Z,21.39
2022-11-01T21:44:22.686Z,21.32
2022-11-01T21:47:32.525Z,21.37
2022-11-01T21:50:35.863Z,20.93
2022-11-01T21:53:38.959Z,21.17
2022-11-01T21:56:42.163Z,21.06
2022-11-01T21:59:45.341Z,21.34
2022-11-01T22:02:48.457Z,20.91
2022-11-01T22:05:52.624Z,20.84
2022-11-01T22:08:55.848Z,20.88
2022-11-01T22:11:59.473Z,20.89
2022-11-01T22:15:02.609Z,20.79
2022-11-01T22:18:06.066Z,20.74
2022-11-01T22:21:09.180Z,20.77
2022-11-01T22:24:12.278Z,20.45
2022-11-01T22:27:15.362Z,20.84
2022-11-01T22:30:18.492Z,20.98
2022-11-01T22:33:23.626Z,20.88
2022-11-01T22:36:29.269Z,21.04
2022-11-01T22:39:32.372Z,21.19
2022-11-01T22:42:35.547Z,21.08
2022-11-01T22:45:40.666Z,20.89
2022-11-01T22:48:44.390Z,20.88
2022-11-01T22:51:51.209Z,20.71
2022-11-01T22:55:04.881Z,20.12
2022-11-01T22:58:32.564Z,20.33
2022-11-01T23:01:36.115Z,20.64
2022-11-01T23:04:42.572Z,20.62
2022-11-01T23:07:50.581Z,20.47
2022-11-01T23:10:54.224Z,20.54
2022-11-01T23:13:57.298Z,20.25
2022-11-01T23:17:00.413Z,20.40
2022-11-01T23:20:03.757Z,20.13
2022-11-01T23:23:10.805Z,20.33
2022-11-01T23:26:15.151Z,20.08
2022-11-01T23:29:18.391Z,20.15
2022-11-01T23:32:21.439Z,19.82
2022-11-01T23:35:25.037Z,19.80
2022-11-01T23:38:35.741Z,19.89
2022-11-01T23:41:53.028Z,19.65
2022-11-01T23:44:56.900Z,19.82
2022-11-01T23:48:00.771Z,19.85
2022-11-01T23:51:03.895Z,19.93
2022-11-01T23:54:07.081Z,20.12
2022-11-01T23:57:13.992Z,19.99
